Terminal Aerodrome Forecast
Issued by NWS Charleston, WV

Home | Current Version | Previous Version | Text Only | Print | Product List | Glossary On
Versions: 1 2 3 4 5 6 7 8 9 10 11 12 13 14 15 16 17 18
000
FTUS41 KRLX 300500
TAFHTS
TAF
KHTS 300531Z 3006/3106 27005KT 6SM -SHRA BKN060 OVC070
     FM300900 25008KT P6SM BKN025
     FM301400 28007KT P6SM SCT025
     FM301500 27009G16KT P6SM SCT045
     FM310000 26005KT P6SM FEW150=

USA.gov is the U.S. government's official web portal to all federal, state and local government web resources and services.